createdAt,value
2022-09-16T00:00:31.044Z,12.80
2022-09-16T00:02:58.688Z,12.78
2022-09-16T00:05:26.184Z,12.75
2022-09-16T00:07:53.603Z,12.73
2022-09-16T00:10:21.619Z,12.74
2022-09-16T00:12:49.467Z,12.78
2022-09-16T00:15:16.642Z,12.81
2022-09-16T00:17:43.320Z,12.79
2022-09-16T00:20:11.086Z,12.85
2022-09-16T00:22:37.971Z,12.86
2022-09-16T00:25:04.961Z,12.87
2022-09-16T00:27:31.563Z,12.87
2022-09-16T00:29:58.347Z,12.84
2022-09-16T00:32:25.151Z,12.82
2022-09-16T00:34:52.487Z,12.82
2022-09-16T00:37:19.150Z,12.78
2022-09-16T00:39:51.090Z,12.76
2022-09-16T00:42:19.024Z,12.72
2022-09-16T00:44:59.891Z,12.70
2022-09-16T00:47:31.736Z,12.70
2022-09-16T00:50:10.348Z,12.70
2022-09-16T00:52:38.384Z,12.66
2022-09-16T00:55:08.988Z,12.61
2022-09-16T00:57:36.866Z,12.53
2022-09-16T01:00:07.764Z,12.49
2022-09-16T01:02:34.897Z,12.46
2022-09-16T01:05:09.854Z,12.43
2022-09-16T01:07:42.071Z,12.41
2022-09-16T01:10:09.507Z,12.40
2022-09-16T01:12:37.118Z,12.36
2022-09-16T01:15:06.312Z,12.39
2022-09-16T01:18:18.006Z,12.38
2022-09-16T01:20:53.040Z,12.41
2022-09-16T01:23:34.726Z,12.44
2022-09-16T01:26:16.240Z,12.48
2022-09-16T01:29:01.695Z,12.47
2022-09-16T01:31:43.062Z,12.50
2022-09-16T01:34:21.732Z,12.50
2022-09-16T01:37:03.197Z,12.49
2022-09-16T01:39:54.231Z,12.50
2022-09-16T01:42:38.591Z,12.49
2022-09-16T01:45:29.927Z,12.56
2022-09-16T01:48:35.310Z,12.61
2022-09-16T01:51:07.958Z,12.66
2022-09-16T01:53:41.999Z,12.71
2022-09-16T01:56:13.982Z,12.73
2022-09-16T01:58:51.814Z,12.74
2022-09-16T02:01:34.837Z,12.69
2022-09-16T02:04:14.968Z,12.68
2022-09-16T02:06:44.399Z,12.66
2022-09-16T02:09:18.946Z,12.63
2022-09-16T02:11:49.226Z,12.58
2022-09-16T02:14:21.862Z,12.56
2022-09-16T02:16:59.419Z,12.52
2022-09-16T02:19:31.847Z,12.50
2022-09-16T02:22:03.020Z,12.50
2022-09-16T02:24:31.408Z,12.44
2022-09-16T02:27:05.449Z,12.39
2022-09-16T02:29:59.661Z,12.35
2022-09-16T02:32:29.609Z,12.28
2022-09-16T02:34:57.789Z,12.28
2022-09-16T02:37:39.925Z,12.23
2022-09-16T02:40:13.838Z,12.16
2022-09-16T02:42:40.569Z,12.15
2022-09-16T02:45:08.324Z,12.14
2022-09-16T02:48:08.294Z,12.17
2022-09-16T02:50:48.277Z,12.21
2022-09-16T02:53:26.325Z,12.20
2022-09-16T02:56:03.041Z,12.28
2022-09-16T02:58:30.019Z,12.32
2022-09-16T03:00:58.631Z,12.31
2022-09-16T03:03:25.828Z,12.32
2022-09-16T03:06:10.372Z,12.33
2022-09-16T03:08:38.225Z,12.27
2022-09-16T03:11:30.740Z,12.26
2022-09-16T03:14:36.952Z,12.33
2022-09-16T03:17:22.049Z,12.34
2022-09-16T03:20:12.092Z,12.35
2022-09-16T03:22:52.437Z,12.40
2022-09-16T03:25:28.079Z,12.47
2022-09-16T03:28:03.205Z,12.51
2022-09-16T03:30:34.154Z,12.52
2022-09-16T03:33:05.650Z,12.51
2022-09-16T03:35:42.901Z,12.52
2022-09-16T03:38:11.957Z,12.48
2022-09-16T03:40:38.878Z,12.49
2022-09-16T03:43:13.096Z,12.52
2022-09-16T03:45:45.830Z,12.54
2022-09-16T03:48:13.780Z,12.60
2022-09-16T03:50:40.372Z,12.63
2022-09-16T03:53:07.039Z,12.57
2022-09-16T03:55:33.677Z,12.57
2022-09-16T03:58:00.304Z,12.54
2022-09-16T04:00:28.959Z,12.58
2022-09-16T04:02:56.149Z,12.65
2022-09-16T04:05:22.990Z,12.62
2022-09-16T04:07:50.098Z,12.66
2022-09-16T04:10:16.950Z,12.67
2022-09-16T04:12:43.587Z,12.66
2022-09-16T04:15:10.853Z,12.65
2022-09-16T04:17:37.652Z,12.63
2022-09-16T04:20:05.954Z,12.53
2022-09-16T04:22:32.686Z,12.47
2022-09-16T04:24:59.372Z,12.49
2022-09-16T04:27:26.063Z,12.47
2022-09-16T04:29:52.691Z,12.49
2022-09-16T04:32:19.312Z,12.54
2022-09-16T04:34:45.913Z,12.50
2022-09-16T04:37:12.591Z,12.51
2022-09-16T04:39:39.220Z,12.46
2022-09-16T04:42:07.225Z,12.40
2022-09-16T04:44:33.869Z,12.33
2022-09-16T04:47:00.784Z,12.29
2022-09-16T04:49:27.527Z,12.31
2022-09-16T04:51:54.364Z,12.36
2022-09-16T04:54:21.009Z,12.37
2022-09-16T04:56:47.937Z,12.35
2022-09-16T04:59:15.128Z,12.30
2022-09-16T05:01:42.016Z,12.29
2022-09-16T05:04:09.816Z,12.33
2022-09-16T05:06:40.745Z,12.31
2022-09-16T05:09:08.205Z,12.28
2022-09-16T05:11:37.974Z,12.25
2022-09-16T05:14:13.088Z,12.25
2022-09-16T05:16:39.809Z,12.23
2022-09-16T05:19:06.447Z,12.21
2022-09-16T05:21:37.785Z,12.17
2022-09-16T05:24:10.684Z,12.18
2022-09-16T05:26:42.232Z,12.25
2022-09-16T05:29:15.444Z,12.30
2022-09-16T05:31:43.757Z,12.37
2022-09-16T05:34:19.484Z,12.46
2022-09-16T05:36:48.017Z,12.52
2022-09-16T05:39:25.331Z,12.45
2022-09-16T05:41:57.919Z,12.48
2022-09-16T05:44:26.240Z,12.54
2022-09-16T05:46:53.600Z,12.59
2022-09-16T05:49:23.875Z,12.62
2022-09-16T05:51:51.780Z,12.62
2022-09-16T05:54:19.833Z,12.57
2022-09-16T05:56:47.686Z,12.58
2022-09-16T05:59:16.375Z,12.59
2022-09-16T06:01:43.140Z,12.64
2022-09-16T06:04:15.021Z,12.68
2022-09-16T06:06:46.398Z,12.70
2022-09-16T06:09:15.580Z,12.70
2022-09-16T06:11:47.538Z,12.70
2022-09-16T06:14:15.494Z,12.70
2022-09-16T06:16:43.008Z,12.72
2022-09-16T06:19:15.783Z,12.77
2022-09-16T06:21:43.929Z,12.82
2022-09-16T06:24:11.863Z,12.84
2022-09-16T06:26:40.507Z,12.86
2022-09-16T06:29:08.296Z,12.90
2022-09-16T06:31:36.512Z,12.95
2022-09-16T06:34:03.883Z,12.94
2022-09-16T06:36:38.486Z,12.97
2022-09-16T06:39:07.313Z,12.95
2022-09-16T06:41:34.681Z,12.98
2022-09-16T06:44:01.631Z,13.00
2022-09-16T06:46:29.430Z,13.04
2022-09-16T06:49:00.372Z,13.06
2022-09-16T06:51:31.791Z,13.03
2022-09-16T06:54:04.753Z,12.98
2022-09-16T06:56:31.666Z,12.96
2022-09-16T06:58:58.538Z,12.98
2022-09-16T07:01:28.340Z,12.96
2022-09-16T07:03:56.594Z,12.98
2022-09-16T07:06:33.375Z,12.96
2022-09-16T07:09:11.368Z,12.99
2022-09-16T07:11:38.048Z,13.02
2022-09-16T07:14:05.107Z,13.07
2022-09-16T07:16:31.799Z,13.08
2022-09-16T07:19:01.089Z,13.02
2022-09-16T07:21:30.436Z,12.98
2022-09-16T07:23:59.228Z,12.95
2022-09-16T07:26:28.481Z,12.89
2022-09-16T07:28:56.031Z,12.77
2022-09-16T07:31:25.460Z,12.67
2022-09-16T07:33:54.719Z,12.70
2022-09-16T07:36:23.868Z,12.71
2022-09-16T07:38:51.497Z,12.78
2022-09-16T07:41:20.659Z,12.87
2022-09-16T07:43:48.285Z,13.04
2022-09-16T07:46:16.905Z,13.11
2022-09-16T07:48:45.226Z,13.16
2022-09-16T07:51:17.643Z,13.22
2022-09-16T07:53:45.109Z,13.26
2022-09-16T07:56:18.835Z,13.35
2022-09-16T07:58:47.074Z,13.46
2022-09-16T08:01:16.107Z,13.44
2022-09-16T08:03:44.512Z,13.46
2022-09-16T08:06:17.101Z,13.55
2022-09-16T08:08:45.137Z,13.59
2022-09-16T08:11:13.048Z,13.51
2022-09-16T08:13:40.142Z,13.40
2022-09-16T08:16:09.292Z,13.29
2022-09-16T08:18:36.373Z,13.26
2022-09-16T08:21:12.020Z,13.19
2022-09-16T08:23:39.388Z,13.14
2022-09-16T08:26:10.993Z,13.19
2022-09-16T08:28:50.919Z,13.24
2022-09-16T08:31:24.558Z,13.35
2022-09-16T08:33:51.319Z,13.44
2022-09-16T08:36:21.415Z,13.40
2022-09-16T08:38:50.315Z,13.42
2022-09-16T08:41:41.176Z,13.50
2022-09-16T08:44:29.004Z,13.56
2022-09-16T08:47:00.722Z,13.67
2022-09-16T08:49:41.173Z,13.75
2022-09-16T08:52:18.021Z,13.72
2022-09-16T08:54:54.643Z,13.78
2022-09-16T08:57:23.309Z,13.79
2022-09-16T08:59:55.795Z,13.87
2022-09-16T09:02:34.889Z,14.01
2022-09-16T09:05:03.694Z,14.14
2022-09-16T09:07:50.789Z,14.23
2022-09-16T09:10:46.485Z,14.28
2022-09-16T09:13:32.588Z,14.19
2022-09-16T09:16:12.739Z,14.30
2022-09-16T09:18:51.569Z,14.51
2022-09-16T09:21:54.533Z,14.72
2022-09-16T09:24:40.650Z,14.85
2022-09-16T09:27:26.326Z,14.90
2022-09-16T09:29:59.187Z,14.87
2022-09-16T09:32:50.886Z,14.81
2022-09-16T09:35:34.615Z,14.91
2022-09-16T09:38:26.027Z,14.87
2022-09-16T09:40:59.589Z,14.94
2022-09-16T09:43:34.951Z,15.06
2022-09-16T09:46:10.365Z,15.13
2022-09-16T09:48:46.216Z,15.09
2022-09-16T09:51:37.246Z,14.95
2022-09-16T09:54:06.213Z,14.78
2022-09-16T09:56:42.933Z,14.74
2022-09-16T09:59:24.801Z,14.74
2022-09-16T10:01:56.374Z,14.81
2022-09-16T10:04:23.269Z,14.92
2022-09-16T10:06:52.957Z,15.02
2022-09-16T10:09:21.431Z,15.11
2022-09-16T10:11:51.416Z,15.18
2022-09-16T10:14:33.590Z,15.05
2022-09-16T10:17:03.034Z,15.07
2022-09-16T10:19:32.736Z,15.31
2022-09-16T10:22:11.913Z,15.60
2022-09-16T10:24:41.092Z,15.82
2022-09-16T10:27:23.327Z,15.88
2022-09-16T10:30:17.772Z,15.98
2022-09-16T10:32:56.738Z,15.92
2022-09-16T10:35:26.068Z,15.84
2022-09-16T10:37:59.507Z,15.65
2022-09-16T10:40:26.797Z,15.62
2022-09-16T10:42:57.170Z,15.43
2022-09-16T10:45:26.242Z,15.31
2022-09-16T10:48:03.381Z,15.52
2022-09-16T10:50:33.252Z,15.79
2022-09-16T10:52:59.969Z,15.82
2022-09-16T10:55:35.281Z,15.72
2022-09-16T10:58:18.473Z,15.75
2022-09-16T11:01:18.357Z,16.02
2022-09-16T11:04:14.589Z,16.48
2022-09-16T11:06:53.542Z,17.12
2022-09-16T11:09:56.732Z,17.54
2022-09-16T11:12:55.291Z,17.67
2022-09-16T11:15:36.805Z,18.01
2022-09-16T11:19:00.400Z,18.03
2022-09-16T11:21:56.854Z,17.86
2022-09-16T11:24:37.015Z,17.55
2022-09-16T11:27:15.697Z,17.30
2022-09-16T11:30:05.049Z,17.00
2022-09-16T11:32:49.983Z,16.69
2022-09-16T11:35:25.176Z,16.68
2022-09-16T11:38:14.164Z,16.72
2022-09-16T11:40:47.108Z,16.76
2022-09-16T11:43:21.363Z,16.59
2022-09-16T11:46:18.787Z,16.64
2022-09-16T11:49:02.571Z,16.68
2022-09-16T11:51:41.925Z,16.65
2022-09-16T11:54:43.086Z,16.60
2022-09-16T11:57:16.641Z,16.66
2022-09-16T12:00:01.114Z,16.77
2022-09-16T12:03:13.042Z,16.85
2022-09-16T12:05:45.735Z,16.86
2022-09-16T12:08:25.481Z,16.80
2022-09-16T12:10:59.280Z,16.76
2022-09-16T12:13:41.692Z,16.83
2022-09-16T12:16:28.085Z,16.94
2022-09-16T12:19:03.128Z,17.10
2022-09-16T12:21:58.703Z,17.16
2022-09-16T12:25:00.244Z,17.06
2022-09-16T12:27:30.271Z,16.91
2022-09-16T12:30:11.976Z,16.80
2022-09-16T12:32:55.468Z,16.76
2022-09-16T12:35:28.877Z,16.78
2022-09-16T12:37:55.941Z,16.76
2022-09-16T12:40:38.440Z,16.78
2022-09-16T12:43:15.207Z,17.00
2022-09-16T12:46:03.412Z,17.34
2022-09-16T12:48:54.987Z,17.76
2022-09-16T12:51:41.646Z,18.14
2022-09-16T12:54:57.322Z,18.34
2022-09-16T12:57:58.064Z,18.49
2022-09-16T13:00:32.755Z,18.17
2022-09-16T13:03:06.572Z,17.87
2022-09-16T13:05:38.917Z,17.71
2022-09-16T13:08:19.445Z,17.78
2022-09-16T13:11:04.374Z,18.04
2022-09-16T13:13:46.511Z,18.32
2022-09-16T13:16:13.442Z,18.54
2022-09-16T13:18:45.825Z,18.68
2022-09-16T13:21:22.938Z,18.82
2022-09-16T13:24:13.538Z,18.78
2022-09-16T13:26:45.398Z,18.65
2022-09-16T13:29:30.617Z,18.50
2022-09-16T13:31:57.310Z,18.22
2022-09-16T13:34:24.918Z,17.91
2022-09-16T13:36:51.624Z,17.77
2022-09-16T13:39:30.879Z,17.58
2022-09-16T13:41:57.767Z,17.46
2022-09-16T13:44:39.805Z,17.25
2022-09-16T13:47:09.105Z,17.11
2022-09-16T13:49:58.148Z,16.93
2022-09-16T13:52:28.873Z,16.72
2022-09-16T13:55:12.692Z,16.53
2022-09-16T13:57:53.574Z,16.12
2022-09-16T14:00:20.553Z,15.88
2022-09-16T14:03:16.955Z,15.55
2022-09-16T14:05:56.403Z,15.23
2022-09-16T14:08:51.530Z,15.02
2022-09-16T14:11:42.611Z,14.83
2022-09-16T14:14:29.979Z,14.77
2022-09-16T14:17:04.470Z,14.77
2022-09-16T14:19:36.659Z,14.81
2022-09-16T14:22:25.799Z,14.90
2022-09-16T14:25:00.948Z,15.09
2022-09-16T14:27:39.691Z,15.31
2022-09-16T14:30:14.769Z,15.38
2022-09-16T14:32:41.661Z,15.38
2022-09-16T14:35:26.637Z,15.51
2022-09-16T14:38:00.633Z,15.60
2022-09-16T14:40:28.495Z,15.58
2022-09-16T14:42:57.838Z,15.53
2022-09-16T14:45:24.795Z,15.52
2022-09-16T14:47:54.397Z,15.49
2022-09-16T14:50:28.542Z,15.52
2022-09-16T14:53:03.699Z,15.65
2022-09-16T14:55:34.908Z,15.70
2022-09-16T14:58:02.255Z,15.64
2022-09-16T15:00:38.543Z,15.51
2022-09-16T15:03:13.123Z,15.45
2022-09-16T15:05:43.965Z,15.44
2022-09-16T15:08:15.899Z,15.35
2022-09-16T15:10:52.497Z,15.42
2022-09-16T15:13:22.848Z,15.55
2022-09-16T15:15:53.165Z,15.57
2022-09-16T15:18:39.114Z,15.47
2022-09-16T15:21:11.720Z,15.33
2022-09-16T15:23:42.447Z,15.34
2022-09-16T15:26:18.604Z,15.36
2022-09-16T15:28:57.261Z,15.31
2022-09-16T15:31:36.986Z,15.24
2022-09-16T15:34:22.449Z,15.17
2022-09-16T15:36:53.952Z,14.96
2022-09-16T15:39:37.544Z,14.78
2022-09-16T15:42:14.231Z,14.64
2022-09-16T15:44:50.221Z,14.56
2022-09-16T15:47:24.393Z,14.57
2022-09-16T15:49:59.812Z,14.58
2022-09-16T15:52:26.569Z,14.64
2022-09-16T15:55:01.053Z,14.75
2022-09-16T15:57:43.644Z,14.87
2022-09-16T16:00:14.799Z,15.03
2022-09-16T16:02:45.777Z,15.09
2022-09-16T16:05:19.341Z,15.08
2022-09-16T16:07:51.353Z,15.04
2022-09-16T16:10:23.874Z,14.97
2022-09-16T16:12:52.012Z,14.92
2022-09-16T16:15:46.440Z,14.88
2022-09-16T16:18:13.122Z,14.86
2022-09-16T16:20:39.982Z,14.82
2022-09-16T16:23:07.223Z,14.78
2022-09-16T16:25:34.154Z,14.72
2022-09-16T16:28:01.021Z,14.73
2022-09-16T16:30:27.665Z,14.77
2022-09-16T16:32:54.299Z,14.72
2022-09-16T16:35:20.940Z,14.57
2022-09-16T16:37:47.883Z,14.45
2022-09-16T16:40:15.352Z,14.42
2022-09-16T16:42:43.871Z,14.35
2022-09-16T16:45:13.077Z,14.36
2022-09-16T16:47:40.207Z,14.36
2022-09-16T16:50:07.074Z,14.34
2022-09-16T16:52:33.745Z,14.30
2022-09-16T16:55:00.421Z,14.25
2022-09-16T16:57:27.017Z,14.19
2022-09-16T16:59:53.649Z,14.14
2022-09-16T17:02:20.442Z,14.03
2022-09-16T17:04:47.066Z,13.95
2022-09-16T17:07:26.322Z,13.93
2022-09-16T17:09:54.523Z,13.80
2022-09-16T17:12:21.237Z,13.71
2022-09-16T17:14:48.121Z,13.65
2022-09-16T17:17:14.773Z,13.59
2022-09-16T17:19:41.429Z,13.55
2022-09-16T17:22:08.185Z,13.48
2022-09-16T17:24:35.071Z,13.42
2022-09-16T17:27:02.105Z,13.37
2022-09-16T17:29:28.964Z,13.34
2022-09-16T17:31:57.222Z,13.33
2022-09-16T17:34:26.432Z,13.33
2022-09-16T17:36:53.228Z,13.29
2022-09-16T17:39:22.747Z,13.24
2022-09-16T17:41:51.087Z,13.16
2022-09-16T17:44:19.038Z,13.09
2022-09-16T17:46:46.912Z,13.09
2022-09-16T17:49:21.240Z,13.09
2022-09-16T17:51:48.740Z,13.08
2022-09-16T17:54:15.749Z,13.03
2022-09-16T17:56:43.666Z,12.92
2022-09-16T17:59:11.938Z,12.87
2022-09-16T18:01:38.880Z,12.82
2022-09-16T18:04:05.672Z,12.75
2022-09-16T18:06:39.258Z,12.67
2022-09-16T18:09:07.404Z,12.65
2022-09-16T18:11:35.009Z,12.59
2022-09-16T18:14:03.928Z,12.61
2022-09-16T18:16:31.197Z,12.59
2022-09-16T18:19:00.963Z,12.58
2022-09-16T18:21:30.245Z,12.56
2022-09-16T18:24:03.025Z,12.57
2022-09-16T18:26:33.120Z,12.55
2022-09-16T18:29:11.187Z,12.53
2022-09-16T18:31:48.784Z,12.49
2022-09-16T18:34:16.810Z,12.50
2022-09-16T18:36:44.013Z,12.50
2022-09-16T18:39:14.223Z,12.50
2022-09-16T18:41:42.735Z,12.51
2022-09-16T18:44:19.813Z,12.51
2022-09-16T18:46:46.787Z,12.51
2022-09-16T18:49:15.135Z,12.52
2022-09-16T18:51:51.620Z,12.58
2022-09-16T18:54:30.487Z,12.50
2022-09-16T18:56:59.243Z,12.43
2022-09-16T18:59:29.134Z,12.42
2022-09-16T19:01:58.738Z,12.37
2022-09-16T19:04:29.540Z,12.29
2022-09-16T19:06:59.428Z,12.26
2022-09-16T19:09:27.977Z,12.23
2022-09-16T19:11:55.165Z,12.17
2022-09-16T19:14:24.710Z,12.25
2022-09-16T19:16:52.476Z,12.27
2022-09-16T19:19:19.930Z,12.28
2022-09-16T19:21:47.404Z,12.22
2022-09-16T19:24:17.484Z,12.18
2022-09-16T19:26:45.569Z,12.15
2022-09-16T19:29:14.772Z,12.09
2022-09-16T19:31:43.986Z,12.03
2022-09-16T19:34:11.624Z,11.97
2022-09-16T19:36:39.554Z,11.86
2022-09-16T19:39:07.834Z,11.88
2022-09-16T19:41:36.344Z,11.88
2022-09-16T19:44:05.608Z,11.82
2022-09-16T19:46:37.613Z,11.73
2022-09-16T19:49:05.630Z,11.73
2022-09-16T19:51:33.297Z,11.70
2022-09-16T19:54:00.958Z,11.67
2022-09-16T19:56:30.290Z,11.63
2022-09-16T19:58:57.723Z,11.59
2022-09-16T20:01:30.420Z,11.55
2022-09-16T20:03:57.232Z,11.55
2022-09-16T20:06:30.844Z,11.58
2022-09-16T20:09:00.736Z,11.62
2022-09-16T20:11:31.510Z,11.58
2022-09-16T20:14:05.445Z,11.49
2022-09-16T20:16:37.718Z,11.43
2022-09-16T20:19:06.350Z,11.41
2022-09-16T20:21:35.161Z,11.40
2022-09-16T20:24:05.845Z,11.43
2022-09-16T20:26:33.373Z,11.44
2022-09-16T20:29:00.281Z,11.38
2022-09-16T20:31:33.296Z,11.34
2022-09-16T20:34:00.227Z,11.28
2022-09-16T20:36:30.586Z,11.24
2022-09-16T20:38:59.671Z,11.21
2022-09-16T20:41:28.799Z,11.19
2022-09-16T20:43:56.085Z,11.20
2022-09-16T20:46:28.069Z,11.20
2022-09-16T20:48:56.672Z,11.19
2022-09-16T20:51:25.343Z,11.19
2022-09-16T20:53:54.915Z,11.15
2022-09-16T20:56:22.570Z,11.15
2022-09-16T20:58:49.644Z,11.16
2022-09-16T21:01:19.679Z,11.13
2022-09-16T21:03:51.662Z,11.15
2022-09-16T21:06:18.755Z,11.09
2022-09-16T21:08:45.501Z,11.04
2022-09-16T21:11:14.945Z,10.99
2022-09-16T21:13:43.399Z,10.92
2022-09-16T21:16:12.839Z,10.90
2022-09-16T21:18:40.344Z,10.89
2022-09-16T21:21:14.295Z,10.90
2022-09-16T21:23:41.814Z,10.85
2022-09-16T21:26:17.230Z,10.82
2022-09-16T21:28:45.569Z,10.80
2022-09-16T21:31:16.127Z,10.76
2022-09-16T21:33:44.522Z,10.76
2022-09-16T21:36:13.601Z,10.75
2022-09-16T21:38:41.299Z,10.71
2022-09-16T21:41:15.585Z,10.66
2022-09-16T21:43:51.142Z,10.66
2022-09-16T21:46:20.255Z,10.64
2022-09-16T21:48:48.509Z,10.60
2022-09-16T21:51:17.175Z,10.56
2022-09-16T21:53:45.326Z,10.56
2022-09-16T21:56:18.017Z,10.54
2022-09-16T21:58:45.817Z,10.49
2022-09-16T22:01:20.748Z,10.56
2022-09-16T22:03:53.635Z,10.58
2022-09-16T22:06:22.254Z,10.51
2022-09-16T22:08:50.163Z,10.46
2022-09-16T22:11:18.416Z,10.46
2022-09-16T22:13:45.571Z,10.48
2022-09-16T22:16:15.196Z,10.47
2022-09-16T22:18:41.872Z,10.43
2022-09-16T22:21:10.917Z,10.35
2022-09-16T22:23:39.040Z,10.35
2022-09-16T22:26:11.519Z,10.33
2022-09-16T22:28:39.119Z,10.32
2022-09-16T22:31:13.370Z,10.25
2022-09-16T22:33:42.177Z,10.26
2022-09-16T22:36:11.527Z,10.25
2022-09-16T22:38:38.436Z,10.21
2022-09-16T22:41:09.358Z,10.18
2022-09-16T22:43:37.570Z,10.17
2022-09-16T22:46:10.614Z,10.12
2022-09-16T22:48:38.195Z,10.14
2022-09-16T22:51:05.553Z,10.18
2022-09-16T22:53:32.934Z,10.14
2022-09-16T22:56:25.108Z,10.10
2022-09-16T22:58:53.836Z,10.05
2022-09-16T23:01:23.621Z,10.00
2022-09-16T23:03:56.401Z,9.97
2022-09-16T23:06:24.753Z,9.94
2022-09-16T23:08:52.463Z,9.87
2022-09-16T23:11:24.180Z,9.86
2022-09-16T23:13:54.835Z,9.83
2022-09-16T23:16:28.184Z,9.83
2022-09-16T23:18:57.030Z,9.85
2022-09-16T23:21:24.956Z,9.85
2022-09-16T23:23:55.384Z,9.83
2022-09-16T23:26:24.802Z,9.78
2022-09-16T23:28:56.305Z,9.77
2022-09-16T23:31:27.195Z,9.76
2022-09-16T23:33:54.767Z,9.75
2022-09-16T23:36:22.785Z,9.72
2022-09-16T23:38:49.913Z,9.74
2022-09-16T23:41:19.831Z,9.76
2022-09-16T23:43:47.885Z,9.72
2022-09-16T23:46:16.714Z,9.75
2022-09-16T23:48:44.218Z,9.77
2022-09-16T23:51:14.156Z,9.80
2022-09-16T23:53:45.164Z,9.84
2022-09-16T23:56:13.300Z,9.86
2022-09-16T23:58:42.111Z,9.87
